sensor_id;sensor_type;location;lat;lon;timestamp;pressure;altitude;pressure_sealevel;temperature;humidity
66381;BME280;53177;52.648;1.214;2023-05-25T00:00:13;102321.63;;;10.98;90.65
66381;BME280;53177;52.648;1.214;2023-05-25T00:02:43;102313.72;;;11.04;90.25
66381;BME280;53177;52.648;1.214;2023-05-25T00:05:10;102314.59;;;10.94;90.63
66381;BME280;53177;52.648;1.214;2023-05-25T00:07:36;102321.66;;;11.13;90.86
66381;BME280;53177;52.648;1.214;2023-05-25T00:10:02;102318.16;;;11.34;89.29
66381;BME280;53177;52.648;1.214;2023-05-25T00:12:27;102320.75;;;11.68;88.03
66381;BME280;53177;52.648;1.214;2023-05-25T00:14:53;102315.50;;;11.73;87.48
66381;BME280;53177;52.648;1.214;2023-05-25T00:17:18;102325.22;;;11.53;88.61
66381;BME280;53177;52.648;1.214;2023-05-25T00:19:44;102321.66;;;11.67;87.97
66381;BME280;53177;52.648;1.214;2023-05-25T00:22:10;102317.22;;;11.60;88.48
66381;BME280;53177;52.648;1.214;2023-05-25T00:24:37;102317.25;;;11.44;90.32
66381;BME280;53177;52.648;1.214;2023-05-25T00:27:03;102320.78;;;11.37;90.88
66381;BME280;53177;52.648;1.214;2023-05-25T00:29:28;102319.88;;;11.57;89.47
66381;BME280;53177;52.648;1.214;2023-05-25T00:31:54;102319.00;;;11.63;90.09
66381;BME280;53177;52.648;1.214;2023-05-25T00:34:21;102319.91;;;11.71;89.54
66381;BME280;53177;52.648;1.214;2023-05-25T00:36:46;102320.78;;;11.58;90.74
66381;BME280;53177;52.648;1.214;2023-05-25T00:39:18;102319.91;;;11.41;91.97
66381;BME280;53177;52.648;1.214;2023-05-25T00:41:45;102326.97;;;11.43;92.15
66381;BME280;53177;52.648;1.214;2023-05-25T00:44:12;102326.94;;;11.49;91.87
66381;BME280;53177;52.648;1.214;2023-05-25T00:46:48;102325.22;;;11.22;94.50
66381;BME280;53177;52.648;1.214;2023-05-25T00:49:17;102323.44;;;11.18;95.15
66381;BME280;53177;52.648;1.214;2023-05-25T00:51:43;102329.59;;;11.16;95.70
66381;BME280;53177;52.648;1.214;2023-05-25T00:54:15;102332.25;;;11.31;95.04
66381;BME280;53177;52.648;1.214;2023-05-25T00:57:10;102334.03;;;11.64;93.52
66381;BME280;53177;52.648;1.214;2023-05-25T00:59:41;102333.13;;;11.83;92.02
66381;BME280;53177;52.648;1.214;2023-05-25T01:02:10;102329.63;;;11.40;95.63
66381;BME280;53177;52.648;1.214;2023-05-25T01:04:56;102331.38;;;11.43;95.85
66381;BME280;53177;52.648;1.214;2023-05-25T01:07:26;102333.16;;;11.38;96.42
66381;BME280;53177;52.648;1.214;2023-05-25T01:10:00;102328.72;;;11.47;95.82
66381;BME280;53177;52.648;1.214;2023-05-25T01:12:28;102329.63;;;11.60;95.23
66381;BME280;53177;52.648;1.214;2023-05-25T01:14:54;102331.38;;;11.40;97.40
66381;BME280;53177;52.648;1.214;2023-05-25T01:17:20;102331.38;;;11.44;97.02
66381;BME280;53177;52.648;1.214;2023-05-25T01:19:45;102327.84;;;11.62;95.76
66381;BME280;53177;52.648;1.214;2023-05-25T01:24:52;102327.88;;;11.30;98.68
66381;BME280;53177;52.648;1.214;2023-05-25T01:29:49;102332.28;;;11.30;98.70
66381;BME280;53177;52.648;1.214;2023-05-25T01:32:16;102334.91;;;11.43;98.69
66381;BME280;53177;52.648;1.214;2023-05-25T01:34:42;102335.78;;;11.57;97.56
66381;BME280;53177;52.648;1.214;2023-05-25T01:37:08;102336.69;;;11.55;97.40
66381;BME280;53177;52.648;1.214;2023-05-25T01:39:37;102347.28;;;11.43;98.33
66381;BME280;53177;52.648;1.214;2023-05-25T01:42:03;102348.16;;;11.30;99.44
66381;BME280;53177;52.648;1.214;2023-05-25T01:44:28;102354.34;;;11.32;99.40
66381;BME280;53177;52.648;1.214;2023-05-25T01:47:04;102356.09;;;11.31;99.39
66381;BME280;53177;52.648;1.214;2023-05-25T01:52:31;102358.75;;;11.14;100.00
66381;BME280;53177;52.648;1.214;2023-05-25T01:57:34;102360.50;;;11.11;100.00
66381;BME280;53177;52.648;1.214;2023-05-25T02:00:01;102366.66;;;11.07;100.00
66381;BME280;53177;52.648;1.214;2023-05-25T02:02:27;102371.94;;;11.02;100.00
66381;BME280;53177;52.648;1.214;2023-05-25T02:04:53;102374.63;;;11.01;100.00
66381;BME280;53177;52.648;1.214;2023-05-25T02:07:21;102376.38;;;11.06;100.00
66381;BME280;53177;52.648;1.214;2023-05-25T02:09:46;102378.13;;;10.94;100.00
66381;BME280;53177;52.648;1.214;2023-05-25T02:12:12;102378.09;;;10.86;100.00
66381;BME280;53177;52.648;1.214;2023-05-25T02:14:37;102377.22;;;10.90;100.00
66381;BME280;53177;52.648;1.214;2023-05-25T02:17:03;102371.91;;;10.90;100.00
66381;BME280;53177;52.648;1.214;2023-05-25T02:19:28;102370.16;;;10.89;100.00
66381;BME280;53177;52.648;1.214;2023-05-25T02:21:54;102375.44;;;10.82;100.00
66381;BME280;53177;52.648;1.214;2023-05-25T02:24:21;102377.19;;;10.75;100.00
66381;BME280;53177;52.648;1.214;2023-05-25T02:26:48;102367.47;;;10.69;100.00
66381;BME280;53177;52.648;1.214;2023-05-25T02:29:15;102360.38;;;10.68;100.00
66381;BME280;53177;52.648;1.214;2023-05-25T02:31:40;102365.72;;;10.71;100.00
66381;BME280;53177;52.648;1.214;2023-05-25T02:34:05;102360.44;;;10.71;100.00
66381;BME280;53177;52.648;1.214;2023-05-25T02:36:31;102358.63;;;10.63;100.00
66381;BME280;53177;52.648;1.214;2023-05-25T02:38:56;102363.03;;;10.59;100.00
66381;BME280;53177;52.648;1.214;2023-05-25T02:41:21;102363.00;;;10.56;100.00
66381;BME280;53177;52.648;1.214;2023-05-25T02:43:48;102355.97;;;10.61;100.00
66381;BME280;53177;52.648;1.214;2023-05-25T02:46:14;102365.66;;;10.61;100.00
66381;BME280;53177;52.648;1.214;2023-05-25T02:48:40;102364.72;;;10.50;100.00
66381;BME280;53177;52.648;1.214;2023-05-25T02:51:07;102362.97;;;10.47;100.00
66381;BME280;53177;52.648;1.214;2023-05-25T02:53:32;102365.59;;;10.41;100.00
66381;BME280;53177;52.648;1.214;2023-05-25T02:55:57;102364.69;;;10.36;100.00
66381;BME280;53177;52.648;1.214;2023-05-25T02:58:24;102373.47;;;10.32;100.00
66381;BME280;53177;52.648;1.214;2023-05-25T03:00:49;102367.31;;;10.33;100.00
66381;BME280;53177;52.648;1.214;2023-05-25T03:03:15;102367.28;;;10.32;100.00
66381;BME280;53177;52.648;1.214;2023-05-25T03:05:40;102369.06;;;10.30;100.00
66381;BME280;53177;52.648;1.214;2023-05-25T03:08:05;102371.69;;;10.31;100.00
66381;BME280;53177;52.648;1.214;2023-05-25T03:10:32;102371.69;;;10.25;100.00
66381;BME280;53177;52.648;1.214;2023-05-25T03:12:59;102370.78;;;10.18;100.00
66381;BME280;53177;52.648;1.214;2023-05-25T03:15:26;102368.06;;;10.12;100.00
66381;BME280;53177;52.648;1.214;2023-05-25T03:17:55;102370.81;;;10.26;100.00
66381;BME280;53177;52.648;1.214;2023-05-25T03:20:27;102369.03;;;10.22;100.00
66381;BME280;53177;52.648;1.214;2023-05-25T03:23:01;102376.09;;;10.23;100.00
66381;BME280;53177;52.648;1.214;2023-05-25T03:25:26;102376.84;;;10.13;100.00
66381;BME280;53177;52.648;1.214;2023-05-25T03:27:52;102376.75;;;9.98;100.00
66381;BME280;53177;52.648;1.214;2023-05-25T03:30:20;102384.78;;;10.08;100.00
66381;BME280;53177;52.648;1.214;2023-05-25T03:32:46;102387.34;;;9.96;100.00
66381;BME280;53177;52.648;1.214;2023-05-25T03:35:11;102393.53;;;10.00;100.00
66381;BME280;53177;52.648;1.214;2023-05-25T03:37:37;102387.41;;;10.07;100.00
66381;BME280;53177;52.648;1.214;2023-05-25T03:40:02;102391.78;;;10.00;100.00
66381;BME280;53177;52.648;1.214;2023-05-25T03:42:28;102385.56;;;9.95;100.00
66381;BME280;53177;52.648;1.214;2023-05-25T03:44:54;102387.31;;;9.92;100.00
66381;BME280;53177;52.648;1.214;2023-05-25T03:47:19;102394.38;;;9.96;100.00
66381;BME280;53177;52.648;1.214;2023-05-25T03:49:44;102397.91;;;9.93;100.00
66381;BME280;53177;52.648;1.214;2023-05-25T03:52:10;102392.66;;;10.02;100.00
66381;BME280;53177;52.648;1.214;2023-05-25T03:54:35;102399.72;;;10.03;100.00
66381;BME280;53177;52.648;1.214;2023-05-25T03:57:01;102395.22;;;9.92;100.00
66381;BME280;53177;52.648;1.214;2023-05-25T03:59:28;102398.75;;;9.89;100.00
66381;BME280;53177;52.648;1.214;2023-05-25T04:01:53;102393.38;;;9.77;100.00
66381;BME280;53177;52.648;1.214;2023-05-25T04:04:19;102397.81;;;9.84;100.00
66381;BME280;53177;52.648;1.214;2023-05-25T04:06:45;102389.06;;;9.94;100.00
66381;BME280;53177;52.648;1.214;2023-05-25T04:09:13;102389.88;;;9.84;100.00
66381;BME280;53177;52.648;1.214;2023-05-25T04:11:38;102398.72;;;9.91;100.00
66381;BME280;53177;52.648;1.214;2023-05-25T04:14:04;102397.81;;;9.81;100.00
66381;BME280;53177;52.648;1.214;2023-05-25T04:16:29;102393.41;;;9.82;100.00
66381;BME280;53177;52.648;1.214;2023-05-25T04:18:54;102399.50;;;9.76;100.00
66381;BME280;53177;52.648;1.214;2023-05-25T04:21:20;102395.06;;;9.69;100.00
66381;BME280;53177;52.648;1.214;2023-05-25T04:23:46;102397.63;;;9.61;100.00
66381;BME280;53177;52.648;1.214;2023-05-25T04:26:11;102395.88;;;9.59;100.00
66381;BME280;53177;52.648;1.214;2023-05-25T04:28:37;102397.63;;;9.60;100.00
66381;BME280;53177;52.648;1.214;2023-05-25T04:31:05;102402.03;;;9.59;100.00
66381;BME280;53177;52.648;1.214;2023-05-25T04:33:31;102403.75;;;9.57;100.00
66381;BME280;53177;52.648;1.214;2023-05-25T04:35:59;102402.84;;;9.51;100.00
66381;BME280;53177;52.648;1.214;2023-05-25T04:38:24;102408.13;;;9.49;100.00
66381;BME280;53177;52.648;1.214;2023-05-25T04:40:50;102403.69;;;9.50;100.00
66381;BME280;53177;52.648;1.214;2023-05-25T04:43:18;102408.13;;;9.49;100.00
66381;BME280;53177;52.648;1.214;2023-05-25T04:45:44;102410.75;;;9.49;100.00
66381;BME280;53177;52.648;1.214;2023-05-25T04:48:11;102412.53;;;9.52;100.00
66381;BME280;53177;52.648;1.214;2023-05-25T04:50:37;102415.19;;;9.53;100.00
66381;BME280;53177;52.648;1.214;2023-05-25T04:53:04;102422.22;;;9.54;100.00
66381;BME280;53177;52.648;1.214;2023-05-25T04:55:30;102422.31;;;9.60;100.00
66381;BME280;53177;52.648;1.214;2023-05-25T04:57:55;102426.72;;;9.66;100.00
66381;BME280;53177;52.648;1.214;2023-05-25T05:00:21;102425.88;;;9.68;100.00
66381;BME280;53177;52.648;1.214;2023-05-25T05:02:47;102427.66;;;9.69;100.00
66381;BME280;53177;52.648;1.214;2023-05-25T05:05:13;102428.56;;;9.76;100.00
66381;BME280;53177;52.648;1.214;2023-05-25T05:07:38;102429.41;;;9.69;100.00
66381;BME280;53177;52.648;1.214;2023-05-25T05:10:04;102422.41;;;9.74;100.00
66381;BME280;53177;52.648;1.214;2023-05-25T05:12:30;102428.66;;;9.85;100.00
66381;BME280;53177;52.648;1.214;2023-05-25T05:14:56;102429.53;;;9.87;100.00
66381;BME280;53177;52.648;1.214;2023-05-25T05:17:22;102434.00;;;9.94;100.00
66381;BME280;53177;52.648;1.214;2023-05-25T05:19:48;102437.59;;;10.04;100.00
66381;BME280;53177;52.648;1.214;2023-05-25T05:22:13;102438.50;;;10.07;100.00
66381;BME280;53177;52.648;1.214;2023-05-25T05:24:40;102442.94;;;10.13;100.00
66381;BME280;53177;52.648;1.214;2023-05-25T05:27:06;102442.13;;;10.20;100.00
66381;BME280;53177;52.648;1.214;2023-05-25T05:29:31;102442.19;;;10.27;100.00
66381;BME280;53177;52.648;1.214;2023-05-25T05:31:59;102449.28;;;10.33;100.00
66381;BME280;53177;52.648;1.214;2023-05-25T05:34:24;102439.56;;;10.32;100.00
66381;BME280;53177;52.648;1.214;2023-05-25T05:36:50;102444.88;;;10.34;100.00
66381;BME280;53177;52.648;1.214;2023-05-25T05:39:16;102442.28;;;10.40;100.00
66381;BME280;53177;52.648;1.214;2023-05-25T05:41:41;102453.78;;;10.51;100.00
66381;BME280;53177;52.648;1.214;2023-05-25T05:44:10;102457.31;;;10.51;100.00
66381;BME280;53177;52.648;1.214;2023-05-25T05:46:36;102464.41;;;10.55;100.00
66381;BME280;53177;52.648;1.214;2023-05-25T05:49:01;102461.75;;;10.57;100.00
66381;BME280;53177;52.648;1.214;2023-05-25T05:51:27;102466.19;;;10.56;99.92
66381;BME280;53177;52.648;1.214;2023-05-25T05:53:53;102469.69;;;10.57;99.88
66381;BME280;53177;52.648;1.214;2023-05-25T05:56:18;102470.63;;;10.68;99.56
66381;BME280;53177;52.648;1.214;2023-05-25T05:58:44;102476.84;;;10.71;99.23
66381;BME280;53177;52.648;1.214;2023-05-25T06:01:09;102478.63;;;10.77;99.07
66381;BME280;53177;52.648;1.214;2023-05-25T06:03:35;102480.38;;;10.77;97.98
66381;BME280;53177;52.648;1.214;2023-05-25T06:06:02;102484.84;;;10.88;97.82
66381;BME280;53177;52.648;1.214;2023-05-25T06:08:28;102477.81;;;10.95;97.54
66381;BME280;53177;52.648;1.214;2023-05-25T06:10:53;102474.31;;;11.06;96.44
66381;BME280;53177;52.648;1.214;2023-05-25T06:13:20;102474.34;;;11.14;96.04
66381;BME280;53177;52.648;1.214;2023-05-25T06:15:46;102488.47;;;11.13;95.24
66381;BME280;53177;52.648;1.214;2023-05-25T06:18:11;102495.53;;;11.17;94.98
66381;BME280;53177;52.648;1.214;2023-05-25T06:20:36;102495.56;;;11.24;94.65
66381;BME280;53177;52.648;1.214;2023-05-25T06:23:02;102494.72;;;11.35;94.06
66381;BME280;53177;52.648;1.214;2023-05-25T06:25:27;102491.19;;;11.34;93.33
66381;BME280;53177;52.648;1.214;2023-05-25T06:27:53;102493.84;;;11.36;92.57
66381;BME280;53177;52.648;1.214;2023-05-25T06:30:19;102491.19;;;11.39;92.74
66381;BME280;53177;52.648;1.214;2023-05-25T06:32:44;102495.63;;;11.46;92.40
66381;BME280;53177;52.648;1.214;2023-05-25T06:35:10;102504.47;;;11.48;90.70
66381;BME280;53177;52.648;1.214;2023-05-25T06:37:41;102518.59;;;11.45;90.07
66381;BME280;53177;52.648;1.214;2023-05-25T06:40:07;102508.97;;;11.73;90.65
66381;BME280;53177;52.648;1.214;2023-05-25T06:42:35;102515.16;;;11.80;89.43
66381;BME280;53177;52.648;1.214;2023-05-25T06:45:02;102514.25;;;11.79;87.49
66381;BME280;53177;52.648;1.214;2023-05-25T06:47:28;102519.56;;;11.73;87.90
66381;BME280;53177;52.648;1.214;2023-05-25T06:49:53;102515.16;;;11.78;88.16
66381;BME280;53177;52.648;1.214;2023-05-25T06:52:19;102522.16;;;11.68;87.46
66381;BME280;53177;52.648;1.214;2023-05-25T06:54:44;102521.28;;;11.62;87.64
66381;BME280;53177;52.648;1.214;2023-05-25T06:57:10;102522.16;;;11.61;88.82
66381;BME280;53177;52.648;1.214;2023-05-25T06:59:35;102527.44;;;11.61;89.28
66381;BME280;53177;52.648;1.214;2023-05-25T07:02:00;102523.94;;;11.56;87.82
66381;BME280;53177;52.648;1.214;2023-05-25T07:04:26;102523.91;;;11.48;87.85
66381;BME280;53177;52.648;1.214;2023-05-25T07:06:52;102530.97;;;11.52;86.91
66381;BME280;53177;52.648;1.214;2023-05-25T07:09:18;102523.91;;;11.57;86.39
66381;BME280;53177;52.648;1.214;2023-05-25T07:11:43;102531.03;;;11.67;87.31
66381;BME280;53177;52.648;1.214;2023-05-25T07:14:08;102533.69;;;11.80;87.46
66381;BME280;53177;52.648;1.214;2023-05-25T07:16:34;102530.19;;;11.85;87.15
66381;BME280;53177;52.648;1.214;2023-05-25T07:19:00;102531.06;;;11.89;86.73
66381;BME280;53177;52.648;1.214;2023-05-25T07:21:25;102531.94;;;11.98;86.15
66381;BME280;53177;52.648;1.214;2023-05-25T07:23:51;102539.00;;;11.90;84.86
66381;BME280;53177;52.648;1.214;2023-05-25T07:26:16;102543.44;;;11.99;84.75
66381;BME280;53177;52.648;1.214;2023-05-25T07:28:41;102539.91;;;11.98;84.20
66381;BME280;53177;52.648;1.214;2023-05-25T07:31:08;102545.22;;;12.01;83.35
66381;BME280;53177;52.648;1.214;2023-05-25T07:33:34;102553.19;;;12.07;82.88
66381;BME280;53177;52.648;1.214;2023-05-25T07:35:59;102550.53;;;12.04;83.99
66381;BME280;53177;52.648;1.214;2023-05-25T07:38:25;102550.53;;;12.18;84.47
66381;BME280;53177;52.648;1.214;2023-05-25T07:40:50;102554.06;;;12.17;83.91
66381;BME280;53177;52.648;1.214;2023-05-25T07:43:16;102559.34;;;12.20;84.78
66381;BME280;53177;52.648;1.214;2023-05-25T07:45:42;102554.94;;;12.31;86.20
66381;BME280;53177;52.648;1.214;2023-05-25T07:48:07;102563.78;;;12.33;84.76
66381;BME280;53177;52.648;1.214;2023-05-25T07:50:33;102563.78;;;12.32;84.66
66381;BME280;53177;52.648;1.214;2023-05-25T07:52:59;102561.16;;;12.23;84.54
66381;BME280;53177;52.648;1.214;2023-05-25T07:55:25;102564.69;;;12.18;84.26
66381;BME280;53177;52.648;1.214;2023-05-25T07:57:50;102562.88;;;12.05;82.67
66381;BME280;53177;52.648;1.214;2023-05-25T08:00:17;102564.66;;;12.06;84.17
66381;BME280;53177;52.648;1.214;2023-05-25T08:02:43;102570.84;;;12.07;83.53
66381;BME280;53177;52.648;1.214;2023-05-25T08:05:09;102575.25;;;12.02;83.41
66381;BME280;53177;52.648;1.214;2023-05-25T08:07:34;102571.75;;;12.10;84.34
66381;BME280;53177;52.648;1.214;2023-05-25T08:10:01;102583.22;;;12.09;84.25
66381;BME280;53177;52.648;1.214;2023-05-25T08:12:27;102570.00;;;12.23;84.52
66381;BME280;53177;52.648;1.214;2023-05-25T08:14:53;102569.09;;;12.18;84.27
66381;BME280;53177;52.648;1.214;2023-05-25T08:17:20;102580.59;;;12.22;84.61
66381;BME280;53177;52.648;1.214;2023-05-25T08:19:45;102572.66;;;12.34;84.45
66381;BME280;53177;52.648;1.214;2023-05-25T08:22:10;102585.88;;;12.31;83.78
66381;BME280;53177;52.648;1.214;2023-05-25T08:24:36;102592.97;;;12.24;83.55
66381;BME280;53177;52.648;1.214;2023-05-25T08:27:01;102597.41;;;12.33;83.95
66381;BME280;53177;52.648;1.214;2023-05-25T08:29:27;102598.25;;;12.27;83.19
66381;BME280;53177;52.648;1.214;2023-05-25T08:31:53;102601.81;;;12.22;83.07
66381;BME280;53177;52.648;1.214;2023-05-25T08:34:18;102600.91;;;12.13;83.49
66381;BME280;53177;52.648;1.214;2023-05-25T08:36:44;102604.44;;;12.12;84.38
66381;BME280;53177;52.648;1.214;2023-05-25T08:39:10;102606.25;;;12.23;84.29
66381;BME280;53177;52.648;1.214;2023-05-25T08:41:40;102600.03;;;12.28;84.71
66381;BME280;53177;52.648;1.214;2023-05-25T08:44:06;102597.38;;;12.31;84.39
66381;BME280;53177;52.648;1.214;2023-05-25T08:46:33;102602.69;;;12.36;84.80
66381;BME280;53177;52.648;1.214;2023-05-25T08:49:17;102602.72;;;12.37;83.01
66381;BME280;53177;52.648;1.214;2023-05-25T08:51:50;102608.00;;;12.31;83.86
66381;BME280;53177;52.648;1.214;2023-05-25T08:54:22;102612.44;;;12.44;84.21
66381;BME280;53177;52.648;1.214;2023-05-25T08:56:50;102609.75;;;12.58;83.96
66381;BME280;53177;52.648;1.214;2023-05-25T09:01:45;102615.06;;;12.75;82.60
66381;BME280;53177;52.648;1.214;2023-05-25T09:04:15;102623.94;;;12.66;82.58
66381;BME280;53177;52.648;1.214;2023-05-25T09:06:44;102624.81;;;12.56;83.62
66381;BME280;53177;52.648;1.214;2023-05-25T09:09:10;102624.78;;;12.60;84.75
66381;BME280;53177;52.648;1.214;2023-05-25T09:11:38;102622.16;;;12.48;84.05
66381;BME280;53177;52.648;1.214;2023-05-25T09:14:04;102630.13;;;12.38;85.12
66381;BME280;53177;52.648;1.214;2023-05-25T09:16:30;102635.41;;;12.32;84.70
66381;BME280;53177;52.648;1.214;2023-05-25T09:18:57;102636.28;;;12.38;85.41
66381;BME280;53177;52.648;1.214;2023-05-25T09:21:24;102636.28;;;12.38;85.24
66381;BME280;53177;52.648;1.214;2023-05-25T09:23:50;102638.97;;;12.50;84.56
66381;BME280;53177;52.648;1.214;2023-05-25T09:26:15;102645.16;;;12.46;84.47
66381;BME280;53177;52.648;1.214;2023-05-25T09:28:46;102638.06;;;12.47;84.46
66381;BME280;53177;52.648;1.214;2023-05-25T09:31:13;102661.06;;;12.46;85.39
66381;BME280;53177;52.648;1.214;2023-05-25T09:33:39;102658.41;;;12.57;85.48
66381;BME280;53177;52.648;1.214;2023-05-25T09:36:05;102664.63;;;12.54;85.13
66381;BME280;53177;52.648;1.214;2023-05-25T09:38:31;102663.72;;;12.42;84.30
66381;BME280;53177;52.648;1.214;2023-05-25T09:40:56;102669.03;;;12.40;85.61
66381;BME280;53177;52.648;1.214;2023-05-25T09:43:23;102670.78;;;12.35;85.42
66381;BME280;53177;52.648;1.214;2023-05-25T09:45:51;102666.38;;;12.43;85.92
66381;BME280;53177;52.648;1.214;2023-05-25T09:48:17;102679.66;;;12.52;86.03
66381;BME280;53177;52.648;1.214;2023-05-25T09:50:43;102665.50;;;12.37;86.73
66381;BME280;53177;52.648;1.214;2023-05-25T09:53:08;102674.34;;;12.36;86.11
66381;BME280;53177;52.648;1.214;2023-05-25T09:55:35;102676.06;;;12.14;86.90
66381;BME280;53177;52.648;1.214;2023-05-25T09:58:01;102677.84;;;12.12;87.58
66381;BME280;53177;52.648;1.214;2023-05-25T10:00:27;102687.59;;;12.27;87.00
66381;BME280;53177;52.648;1.214;2023-05-25T10:02:53;102678.75;;;12.32;87.34
66381;BME280;53177;52.648;1.214;2023-05-25T10:05:20;102683.16;;;12.24;85.77
66381;BME280;53177;52.648;1.214;2023-05-25T10:07:46;102686.72;;;12.32;86.51
66381;BME280;53177;52.648;1.214;2023-05-25T10:10:15;102685.81;;;12.26;85.65
66381;BME280;53177;52.648;1.214;2023-05-25T10:12:42;102687.59;;;12.25;85.92
66381;BME280;53177;52.648;1.214;2023-05-25T10:15:08;102692.00;;;12.25;86.00
66381;BME280;53177;52.648;1.214;2023-05-25T10:17:59;102690.22;;;12.17;86.42
66381;BME280;53177;52.648;1.214;2023-05-25T10:20:24;102684.94;;;12.30;87.18
66381;BME280;53177;52.648;1.214;2023-05-25T10:22:56;102687.59;;;12.25;86.28
66381;BME280;53177;52.648;1.214;2023-05-25T10:25:53;102684.94;;;12.25;87.23
66381;BME280;53177;52.648;1.214;2023-05-25T10:28:28;102689.34;;;12.28;87.20
66381;BME280;53177;52.648;1.214;2023-05-25T10:30:58;102691.13;;;12.42;87.18
66381;BME280;53177;52.648;1.214;2023-05-25T10:33:24;102690.25;;;12.43;87.24
66381;BME280;53177;52.648;1.214;2023-05-25T10:35:49;102698.22;;;12.36;86.83
66381;BME280;53177;52.648;1.214;2023-05-25T10:38:16;102691.13;;;12.39;87.06
66381;BME280;53177;52.648;1.214;2023-05-25T10:40:43;102698.19;;;12.25;87.49
66381;BME280;53177;52.648;1.214;2023-05-25T10:43:13;102698.19;;;12.22;87.22
66381;BME280;53177;52.648;1.214;2023-05-25T10:45:39;102697.28;;;12.14;87.25
66381;BME280;53177;52.648;1.214;2023-05-25T10:48:06;102699.03;;;12.07;87.77
66381;BME280;53177;52.648;1.214;2023-05-25T10:50:34;102702.59;;;12.20;88.04
66381;BME280;53177;52.648;1.214;2023-05-25T10:53:06;102703.50;;;12.28;87.50
66381;BME280;53177;52.648;1.214;2023-05-25T10:55:59;102707.06;;;12.42;87.07
66381;BME280;53177;52.648;1.214;2023-05-25T10:58:26;102704.41;;;12.60;85.95
66381;BME280;53177;52.648;1.214;2023-05-25T11:03:52;102700.91;;;12.93;83.87
66381;BME280;53177;52.648;1.214;2023-05-25T11:06:20;102694.69;;;12.94;81.29
66381;BME280;53177;52.648;1.214;2023-05-25T11:08:59;102700.00;;;12.99;81.66
66381;BME280;53177;52.648;1.214;2023-05-25T11:14:28;102695.56;;;13.30;79.07
66381;BME280;53177;52.648;1.214;2023-05-25T11:17:11;102698.00;;;13.95;76.82
66381;BME280;53177;52.648;1.214;2023-05-25T11:19:44;102683.78;;;14.03;76.80
66381;BME280;53177;52.648;1.214;2023-05-25T11:22:30;102688.25;;;13.95;76.42
66381;BME280;53177;52.648;1.214;2023-05-25T11:24:57;102686.56;;;13.78;76.42
66381;BME280;53177;52.648;1.214;2023-05-25T11:27:28;102684.34;;;14.52;75.19
66381;BME280;53177;52.648;1.214;2023-05-25T11:29:54;102678.09;;;14.56;74.63
66381;BME280;53177;52.648;1.214;2023-05-25T11:32:21;102686.25;;;14.31;75.49
66381;BME280;53177;52.648;1.214;2023-05-25T11:34:47;102689.06;;;14.05;76.74
66381;BME280;53177;52.648;1.214;2023-05-25T11:37:16;102683.63;;;14.26;73.72
66381;BME280;53177;52.648;1.214;2023-05-25T11:39:46;102686.28;;;14.29;74.84
66381;BME280;53177;52.648;1.214;2023-05-25T11:42:13;102676.59;;;14.18;74.89
66381;BME280;53177;52.648;1.214;2023-05-25T11:44:39;102673.91;;;14.22;74.48
66381;BME280;53177;52.648;1.214;2023-05-25T11:47:07;102671.22;;;14.25;73.45
66381;BME280;53177;52.648;1.214;2023-05-25T11:49:37;102669.38;;;14.35;73.66
66381;BME280;53177;52.648;1.214;2023-05-25T11:52:04;102666.72;;;14.39;73.96
66381;BME280;53177;52.648;1.214;2023-05-25T11:54:34;102670.06;;;14.64;73.08
66381;BME280;53177;52.648;1.214;2023-05-25T11:57:00;102665.47;;;14.81;73.17
66381;BME280;53177;52.648;1.214;2023-05-25T11:59:30;102662.25;;;14.43;73.00
66381;BME280;53177;52.648;1.214;2023-05-25T12:01:57;102666.28;;;14.91;72.27
66381;BME280;53177;52.648;1.214;2023-05-25T12:04:23;102670.03;;;15.58;70.77
66381;BME280;53177;52.648;1.214;2023-05-25T12:06:48;102671.00;;;16.16;69.98
66381;BME280;53177;52.648;1.214;2023-05-25T12:09:18;102681.91;;;16.00;68.44
66381;BME280;53177;52.648;1.214;2023-05-25T12:11:45;102683.53;;;15.40;68.96
66381;BME280;53177;52.648;1.214;2023-05-25T12:14:11;102674.13;;;15.07;70.13
66381;BME280;53177;52.648;1.214;2023-05-25T12:16:36;102679.44;;;15.06;70.13
66381;BME280;53177;52.648;1.214;2023-05-25T12:19:06;102677.44;;;15.28;69.90
66381;BME280;53177;52.648;1.214;2023-05-25T12:21:32;102671.34;;;15.18;69.11
66381;BME280;53177;52.648;1.214;2023-05-25T12:23:58;102675.69;;;15.25;70.28
66381;BME280;53177;52.648;1.214;2023-05-25T12:26:24;102676.78;;;15.04;69.65
66381;BME280;53177;52.648;1.214;2023-05-25T12:29:16;102687.69;;;14.82;71.01
66381;BME280;53177;52.648;1.214;2023-05-25T12:31:42;102687.63;;;14.86;71.28
66381;BME280;53177;52.648;1.214;2023-05-25T12:34:18;102686.72;;;14.87;70.86
66381;BME280;53177;52.648;1.214;2023-05-25T12:36:48;102691.25;;;14.76;69.62
66381;BME280;53177;52.648;1.214;2023-05-25T12:39:16;102692.78;;;15.06;70.66
66381;BME280;53177;52.648;1.214;2023-05-25T12:41:47;102691.69;;;15.24;71.39
66381;BME280;53177;52.648;1.214;2023-05-25T12:44:24;102688.22;;;15.93;69.39
66381;BME280;53177;52.648;1.214;2023-05-25T12:46:51;102693.16;;;16.22;68.60
66381;BME280;53177;52.648;1.214;2023-05-25T12:49:31;102686.19;;;16.12;69.00
66381;BME280;53177;52.648;1.214;2023-05-25T12:51:58;102691.09;;;15.80;69.33
66381;BME280;53177;52.648;1.214;2023-05-25T12:54:42;102691.31;;;15.62;68.98
66381;BME280;53177;52.648;1.214;2023-05-25T12:57:14;102693.09;;;15.63;68.24
66381;BME280;53177;52.648;1.214;2023-05-25T12:59:42;102683.16;;;14.91;70.84
66381;BME280;53177;52.648;1.214;2023-05-25T13:02:08;102681.38;;;14.92;71.13
66381;BME280;53177;52.648;1.214;2023-05-25T13:04:35;102677.88;;;14.85;72.56
66381;BME280;53177;52.648;1.214;2023-05-25T13:07:01;102684.81;;;15.03;71.67